createdAt,value
2019-05-26T00:00:23.840Z,93.41
2019-05-26T00:01:23.807Z,94.27
2019-05-26T00:02:23.761Z,93.99
2019-05-26T00:03:23.722Z,94.08
2019-05-26T00:04:23.690Z,93.41
2019-05-26T00:05:23.651Z,93.60
2019-05-26T00:06:23.618Z,93.51
2019-05-26T00:07:30.475Z,93.79
2019-05-26T00:08:23.583Z,93.89
2019-05-26T00:09:23.542Z,93.04
2019-05-26T00:10:23.503Z,93.60
2019-05-26T00:11:23.447Z,92.94
2019-05-26T00:12:23.436Z,93.60
2019-05-26T00:13:23.417Z,93.32
2019-05-26T00:14:23.338Z,93.89
2019-05-26T00:15:23.325Z,93.89
2019-05-26T00:16:23.271Z,93.70
2019-05-26T00:17:23.208Z,93.51
2019-05-26T00:18:23.169Z,93.51
2019-05-26T00:19:23.128Z,92.66
2019-05-26T00:20:23.080Z,92.85
2019-05-26T00:21:23.039Z,92.08
2019-05-26T00:22:23.015Z,92.27
2019-05-26T00:23:22.961Z,92.85
2019-05-26T00:24:22.955Z,93.13
2019-05-26T00:25:22.894Z,93.79
2019-05-26T00:26:22.837Z,93.70
2019-05-26T00:27:22.795Z,92.56
2019-05-26T00:28:22.762Z,93.13
2019-05-26T00:29:22.723Z,93.60
2019-05-26T00:30:22.683Z,93.99
2019-05-26T00:31:22.650Z,93.84
2019-05-26T00:32:22.607Z,94.03
2019-05-26T00:33:22.574Z,93.84
2019-05-26T00:34:22.537Z,93.94
2019-05-26T00:35:22.502Z,94.42
2019-05-26T00:36:22.454Z,94.03
2019-05-26T00:37:22.416Z,94.32
2019-05-26T00:38:22.371Z,94.60
2019-05-26T00:39:22.333Z,94.60
2019-05-26T00:40:22.320Z,93.84
2019-05-26T00:41:22.294Z,93.75
2019-05-26T00:42:22.256Z,94.13
2019-05-26T00:43:22.186Z,93.75
2019-05-26T00:44:22.168Z,93.94
2019-05-26T00:45:22.136Z,93.75
2019-05-26T00:46:22.070Z,93.84
2019-05-26T00:47:22.047Z,94.03
2019-05-26T00:48:21.998Z,93.94
2019-05-26T00:49:22.015Z,93.41
2019-05-26T00:50:21.986Z,93.32
2019-05-26T00:51:21.909Z,93.41
2019-05-26T00:52:21.859Z,93.32
2019-05-26T00:53:21.812Z,93.13
2019-05-26T00:54:21.792Z,93.51
2019-05-26T00:55:21.731Z,93.41
2019-05-26T00:56:21.713Z,93.41
2019-05-26T00:57:21.649Z,93.23
2019-05-26T00:58:21.610Z,93.60
2019-05-26T00:59:21.563Z,93.79
2019-05-26T01:00:21.521Z,93.70
2019-05-26T01:01:21.479Z,93.70
2019-05-26T01:02:21.443Z,93.89
2019-05-26T01:03:21.416Z,94.08
2019-05-26T01:04:21.359Z,93.79
2019-05-26T01:05:21.325Z,93.79
2019-05-26T01:06:21.287Z,93.79
2019-05-26T01:07:21.251Z,93.99
2019-05-26T01:08:21.206Z,93.99
2019-05-26T01:09:21.188Z,93.94
2019-05-26T01:10:21.131Z,94.89
2019-05-26T01:11:21.093Z,94.79
2019-05-26T01:12:21.069Z,94.42
2019-05-26T01:13:21.012Z,94.13
2019-05-26T01:14:20.981Z,94.51
2019-05-26T01:15:20.935Z,94.32
2019-05-26T01:16:20.927Z,94.32
2019-05-26T01:17:20.888Z,94.79
2019-05-26T01:18:20.824Z,94.42
2019-05-26T01:19:20.804Z,95.17
2019-05-26T01:20:20.767Z,94.51
2019-05-26T01:21:20.746Z,95.08
2019-05-26T01:22:20.676Z,94.51
2019-05-26T01:23:20.629Z,94.89
2019-05-26T01:24:20.575Z,94.89
2019-05-26T01:25:20.621Z,94.89
2019-05-26T01:26:20.518Z,94.51
2019-05-26T01:27:20.523Z,94.60
2019-05-26T01:28:20.422Z,94.79
2019-05-26T01:29:20.388Z,94.60
2019-05-26T01:30:20.341Z,94.51
2019-05-26T01:31:20.298Z,94.79
2019-05-26T01:32:20.262Z,94.89
2019-05-26T01:33:20.220Z,94.70
2019-05-26T01:34:20.184Z,94.79
2019-05-26T01:35:20.144Z,94.79
2019-05-26T01:36:20.104Z,95.27
2019-05-26T01:37:20.062Z,95.51
2019-05-26T01:38:24.235Z,95.51
2019-05-26T01:39:19.988Z,95.41
2019-05-26T01:40:19.958Z,95.51
2019-05-26T01:41:19.920Z,95.12
2019-05-26T01:42:19.869Z,95.51
2019-05-26T01:43:19.851Z,95.22
2019-05-26T01:44:19.830Z,95.51
2019-05-26T01:45:19.821Z,95.70
2019-05-26T01:46:19.756Z,95.41
2019-05-26T01:47:19.739Z,95.51
2019-05-26T01:48:19.649Z,95.70
2019-05-26T01:49:19.605Z,95.89
2019-05-26T01:50:19.602Z,95.70
2019-05-26T01:51:19.588Z,95.70
2019-05-26T01:52:19.501Z,95.89
2019-05-26T01:53:19.450Z,96.08
2019-05-26T01:54:19.420Z,95.89
2019-05-26T01:55:19.375Z,95.98
2019-05-26T01:56:19.345Z,96.55
2019-05-26T01:57:19.303Z,96.22
2019-05-26T01:58:19.264Z,96.03
2019-05-26T01:59:19.196Z,96.22
2019-05-26T02:00:19.161Z,96.78
2019-05-26T02:01:19.116Z,97.26
2019-05-26T02:02:19.079Z,97.26
2019-05-26T02:03:19.041Z,96.97
2019-05-26T02:04:19.005Z,96.69
2019-05-26T02:05:18.960Z,96.41
2019-05-26T02:06:18.924Z,96.22
2019-05-26T02:07:18.889Z,95.74
2019-05-26T02:08:18.857Z,95.98
2019-05-26T02:09:18.814Z,95.22
2019-05-26T02:10:18.769Z,95.22
2019-05-26T02:11:18.728Z,95.98
2019-05-26T02:12:18.688Z,95.98
2019-05-26T02:13:18.648Z,95.60
2019-05-26T02:14:18.615Z,95.70
2019-05-26T02:15:18.573Z,96.55
2019-05-26T02:16:18.637Z,96.45
2019-05-26T02:17:18.500Z,96.26
2019-05-26T02:18:18.505Z,96.26
2019-05-26T02:19:18.439Z,96.45
2019-05-26T02:20:18.385Z,96.26
2019-05-26T02:21:18.338Z,96.26
2019-05-26T02:22:18.301Z,96.36
2019-05-26T02:23:18.260Z,96.08
2019-05-26T02:24:18.215Z,96.45
2019-05-26T02:25:18.183Z,96.45
2019-05-26T02:26:18.162Z,96.36
2019-05-26T02:27:18.111Z,96.74
2019-05-26T02:28:18.096Z,96.64
2019-05-26T02:29:18.052Z,96.78
2019-05-26T02:30:17.979Z,96.88
2019-05-26T02:31:17.932Z,96.69
2019-05-26T02:32:17.894Z,97.07
2019-05-26T02:33:17.926Z,97.36
2019-05-26T02:34:17.813Z,96.88
2019-05-26T02:35:17.774Z,97.55
2019-05-26T02:36:17.734Z,97.26
2019-05-26T02:37:17.698Z,97.64
2019-05-26T02:38:17.651Z,97.26
2019-05-26T02:39:17.612Z,97.17
2019-05-26T02:40:17.581Z,97.36
2019-05-26T02:41:17.533Z,97.26
2019-05-26T02:42:17.491Z,97.26
2019-05-26T02:43:17.458Z,96.97
2019-05-26T02:44:17.415Z,97.17
2019-05-26T02:45:17.376Z,97.55
2019-05-26T02:46:17.344Z,97.55
2019-05-26T02:47:17.361Z,97.07
2019-05-26T02:48:17.262Z,96.88
2019-05-26T02:49:17.240Z,97.07
2019-05-26T02:50:17.188Z,96.88
2019-05-26T02:51:17.191Z,96.97
2019-05-26T02:52:17.135Z,97.64
2019-05-26T02:53:17.093Z,97.55
2019-05-26T02:54:17.060Z,97.26
2019-05-26T02:55:16.998Z,97.26
2019-05-26T02:56:16.986Z,97.17
2019-05-26T02:57:16.898Z,97.74
2019-05-26T02:58:16.932Z,97.45
2019-05-26T02:59:16.832Z,97.50
2019-05-26T03:00:16.796Z,97.31
2019-05-26T03:01:16.736Z,97.55
2019-05-26T03:02:16.700Z,97.55
2019-05-26T03:03:16.669Z,97.26
2019-05-26T03:04:16.620Z,97.36
2019-05-26T03:05:16.576Z,97.26
2019-05-26T03:06:16.540Z,97.26
2019-05-26T03:07:16.547Z,97.45
2019-05-26T03:08:16.453Z,97.83
2019-05-26T03:09:22.429Z,97.36
2019-05-26T03:10:16.378Z,98.21
2019-05-26T03:11:16.348Z,97.64
2019-05-26T03:12:16.300Z,97.45
2019-05-26T03:13:16.258Z,97.64
2019-05-26T03:14:16.217Z,97.36
2019-05-26T03:15:16.193Z,97.45
2019-05-26T03:16:16.138Z,98.11
2019-05-26T03:17:16.118Z,98.02
2019-05-26T03:18:16.065Z,97.92
2019-05-26T03:19:16.029Z,97.92
2019-05-26T03:20:16.006Z,97.64
2019-05-26T03:21:15.972Z,97.26
2019-05-26T03:22:15.930Z,97.26
2019-05-26T03:23:15.903Z,97.64
2019-05-26T03:24:15.865Z,97.36
2019-05-26T03:25:15.779Z,97.26
2019-05-26T03:26:15.794Z,97.26
2019-05-26T03:27:15.729Z,97.74
2019-05-26T03:28:15.684Z,97.64
2019-05-26T03:29:15.629Z,97.17
2019-05-26T03:30:15.639Z,97.50
2019-05-26T03:31:15.554Z,97.41
2019-05-26T03:32:15.493Z,97.50
2019-05-26T03:33:15.457Z,97.41
2019-05-26T03:34:15.450Z,97.31
2019-05-26T03:35:15.404Z,97.22
2019-05-26T03:36:15.336Z,97.60
2019-05-26T03:37:15.303Z,97.50
2019-05-26T03:38:15.262Z,97.41
2019-05-26T03:39:15.215Z,97.50
2019-05-26T03:40:15.172Z,97.60
2019-05-26T03:41:15.135Z,97.60
2019-05-26T03:42:15.119Z,97.41
2019-05-26T03:43:15.054Z,97.17
2019-05-26T03:44:15.016Z,97.83
2019-05-26T03:45:14.978Z,97.45
2019-05-26T03:46:14.957Z,97.55
2019-05-26T03:47:16.823Z,97.26
2019-05-26T03:48:14.854Z,97.26
2019-05-26T03:49:14.865Z,97.31
2019-05-26T03:50:14.813Z,97.50
2019-05-26T03:51:14.759Z,97.26
2019-05-26T03:52:14.724Z,97.31
2019-05-26T03:53:14.672Z,96.97
2019-05-26T03:54:14.645Z,97.31
2019-05-26T03:55:14.596Z,97.22
2019-05-26T03:56:14.564Z,97.50
2019-05-26T03:57:14.555Z,97.50
2019-05-26T03:58:14.556Z,97.02
2019-05-26T03:59:14.427Z,97.12
2019-05-26T04:00:14.388Z,97.12
2019-05-26T04:01:14.374Z,97.31
2019-05-26T04:02:14.317Z,96.45
2019-05-26T04:03:14.269Z,95.84
2019-05-26T04:04:14.226Z,95.55
2019-05-26T04:05:14.177Z,94.84
2019-05-26T04:06:14.137Z,94.27
2019-05-26T04:07:14.098Z,94.56
2019-05-26T04:08:14.053Z,94.22
2019-05-26T04:09:14.025Z,94.32
2019-05-26T04:10:13.973Z,95.65
2019-05-26T04:11:13.947Z,96.69
2019-05-26T04:12:13.904Z,96.84
2019-05-26T04:13:13.873Z,96.94
2019-05-26T04:14:13.823Z,96.84
2019-05-26T04:15:13.779Z,96.70
2019-05-26T04:16:13.738Z,95.84
2019-05-26T04:17:13.802Z,95.79
2019-05-26T04:18:13.668Z,97.13
2019-05-26T04:19:13.665Z,99.51
2019-05-26T04:20:13.617Z,99.99
2019-05-26T04:21:13.572Z,99.99
2019-05-26T04:22:13.565Z,99.99
2019-05-26T04:23:13.490Z,99.99
2019-05-26T04:24:13.520Z,99.99
2019-05-26T04:25:13.438Z,99.99
2019-05-26T04:26:13.440Z,99.99
2019-05-26T04:27:13.347Z,99.99
2019-05-26T04:28:13.338Z,99.99
2019-05-26T04:29:13.272Z,99.99
2019-05-26T04:30:13.250Z,99.99
2019-05-26T04:31:13.227Z,99.99
2019-05-26T04:32:13.140Z,99.99
2019-05-26T04:33:13.128Z,99.99
2019-05-26T04:34:13.091Z,99.99
2019-05-26T04:35:13.065Z,99.99
2019-05-26T04:36:12.981Z,99.99
2019-05-26T04:37:12.956Z,99.99
2019-05-26T04:38:12.930Z,99.99
2019-05-26T04:39:12.883Z,99.99
2019-05-26T04:40:26.306Z,99.99
2019-05-26T04:41:12.813Z,99.99
2019-05-26T04:42:12.821Z,99.99
2019-05-26T04:43:14.820Z,99.99
2019-05-26T04:44:12.679Z,99.99
2019-05-26T04:45:12.655Z,99.99
2019-05-26T04:46:12.605Z,99.99
2019-05-26T04:47:12.571Z,99.99
2019-05-26T04:48:12.539Z,99.99
2019-05-26T04:49:12.510Z,99.99
2019-05-26T04:50:12.467Z,99.99
2019-05-26T04:51:12.444Z,99.99
2019-05-26T04:52:12.422Z,99.99
2019-05-26T04:53:12.386Z,99.99
2019-05-26T04:54:12.343Z,99.99
2019-05-26T04:55:12.315Z,99.99
2019-05-26T04:56:12.269Z,99.99
2019-05-26T04:57:12.276Z,99.99
2019-05-26T04:58:12.190Z,99.99
2019-05-26T04:59:12.227Z,99.99
2019-05-26T05:00:12.159Z,99.99
2019-05-26T05:01:12.107Z,99.99
2019-05-26T05:02:12.052Z,99.99
2019-05-26T05:03:12.017Z,99.99
2019-05-26T05:04:11.981Z,99.99
2019-05-26T05:05:11.947Z,99.99
2019-05-26T05:06:11.915Z,99.99
2019-05-26T05:07:11.873Z,99.99
2019-05-26T05:08:11.836Z,99.99
2019-05-26T05:09:11.810Z,99.99
2019-05-26T05:10:11.777Z,99.99
2019-05-26T05:11:11.732Z,99.99
2019-05-26T05:12:11.702Z,99.99
2019-05-26T05:13:11.672Z,99.99
2019-05-26T05:14:11.647Z,99.99
2019-05-26T05:15:11.604Z,99.99
2019-05-26T05:16:11.591Z,99.99
2019-05-26T05:17:11.537Z,99.99
2019-05-26T05:18:11.515Z,99.99
2019-05-26T05:19:11.479Z,99.99
2019-05-26T05:20:11.446Z,99.99
2019-05-26T05:21:11.409Z,99.99
2019-05-26T05:22:11.390Z,99.99
2019-05-26T05:23:11.364Z,99.99
2019-05-26T05:24:11.342Z,99.99
2019-05-26T05:25:14.877Z,99.99
2019-05-26T05:26:11.268Z,99.99
2019-05-26T05:27:11.285Z,99.99
2019-05-26T05:28:11.244Z,99.99
2019-05-26T05:29:11.208Z,99.99
2019-05-26T05:30:11.195Z,99.99
2019-05-26T05:31:11.120Z,99.99
2019-05-26T05:32:11.107Z,99.99
2019-05-26T05:33:11.071Z,99.99
2019-05-26T05:34:11.045Z,99.99
2019-05-26T05:35:11.012Z,99.99
2019-05-26T05:36:11.003Z,99.99
2019-05-26T05:37:10.917Z,99.99
2019-05-26T05:38:10.887Z,99.99
2019-05-26T05:39:10.852Z,99.99
2019-05-26T05:40:10.838Z,99.99
2019-05-26T05:41:10.795Z,99.99
2019-05-26T05:42:10.769Z,99.99
2019-05-26T05:43:10.792Z,99.99
2019-05-26T05:44:10.698Z,99.99
2019-05-26T05:45:10.708Z,99.99
2019-05-26T05:46:10.629Z,99.99
2019-05-26T05:47:10.603Z,99.99
2019-05-26T05:48:10.626Z,99.99
2019-05-26T05:49:10.549Z,99.99
2019-05-26T05:50:10.510Z,99.99
2019-05-26T05:51:10.479Z,99.99
2019-05-26T05:52:10.459Z,99.99
2019-05-26T05:53:10.435Z,99.99
2019-05-26T05:54:10.387Z,99.99
2019-05-26T05:55:10.407Z,99.99
2019-05-26T05:56:10.357Z,99.99
2019-05-26T05:57:10.347Z,99.99
2019-05-26T05:58:10.245Z,99.99
2019-05-26T05:59:10.222Z,99.99
2019-05-26T06:00:10.197Z,99.99
2019-05-26T06:01:10.162Z,99.99
2019-05-26T06:02:10.135Z,99.99
2019-05-26T06:03:10.080Z,99.99
2019-05-26T06:04:10.068Z,99.99
2019-05-26T06:05:10.064Z,99.99
2019-05-26T06:06:10.044Z,99.99
2019-05-26T06:07:09.957Z,99.99
2019-05-26T06:08:09.945Z,99.99
2019-05-26T06:09:09.921Z,99.99
2019-05-26T06:10:09.850Z,99.99
2019-05-26T06:11:16.664Z,99.99
2019-05-26T06:12:09.788Z,99.99
2019-05-26T06:13:09.763Z,99.99
2019-05-26T06:14:09.714Z,99.99
2019-05-26T06:15:09.687Z,99.99
2019-05-26T06:16:09.645Z,99.99
2019-05-26T06:17:10.600Z,99.99
2019-05-26T06:18:09.589Z,99.99
2019-05-26T06:19:09.559Z,99.99
2019-05-26T06:20:09.512Z,99.99
2019-05-26T06:21:09.477Z,99.99
2019-05-26T06:22:09.448Z,99.99
2019-05-26T06:23:09.470Z,99.99
2019-05-26T06:24:09.389Z,99.99
2019-05-26T06:25:09.379Z,99.99
2019-05-26T06:26:09.331Z,99.99
2019-05-26T06:27:09.307Z,99.99
2019-05-26T06:28:09.287Z,99.99
2019-05-26T06:29:09.222Z,99.99
2019-05-26T06:30:09.205Z,99.99
2019-05-26T06:31:09.187Z,99.99
2019-05-26T06:32:09.455Z,99.99
2019-05-26T06:33:09.103Z,99.99
2019-05-26T06:34:09.071Z,99.99
2019-05-26T06:35:09.143Z,99.99
2019-05-26T06:36:09.050Z,99.99
2019-05-26T06:37:08.971Z,99.99
2019-05-26T06:38:08.936Z,99.99
2019-05-26T06:39:08.920Z,99.99
2019-05-26T06:40:08.874Z,99.99
2019-05-26T06:41:08.826Z,99.99
2019-05-26T06:42:12.289Z,99.99
2019-05-26T06:43:08.771Z,99.99
2019-05-26T06:44:08.733Z,99.99
2019-05-26T06:45:08.698Z,99.99
2019-05-26T06:46:08.685Z,99.99
2019-05-26T06:47:08.623Z,99.99
2019-05-26T06:48:08.625Z,99.99
2019-05-26T06:49:08.566Z,99.99
2019-05-26T06:50:08.535Z,99.99
2019-05-26T06:51:08.532Z,99.99
2019-05-26T06:52:08.619Z,99.99
2019-05-26T06:53:08.431Z,99.99
2019-05-26T06:54:08.410Z,99.99
2019-05-26T06:55:08.377Z,99.99
2019-05-26T06:56:08.344Z,99.99
2019-05-26T06:57:08.364Z,99.99
2019-05-26T06:58:08.283Z,96.03
2019-05-26T06:59:08.251Z,95.40
2019-05-26T07:00:08.227Z,92.13
2019-05-26T07:01:08.231Z,91.16
2019-05-26T07:02:08.189Z,87.74
2019-05-26T07:03:08.113Z,85.66
2019-05-26T07:04:08.122Z,81.80
2019-05-26T07:05:08.135Z,84.06
2019-05-26T07:06:08.046Z,81.68
2019-05-26T07:07:08.015Z,79.24
2019-05-26T07:08:07.981Z,78.48
2019-05-26T07:09:07.986Z,83.78
2019-05-26T07:10:07.917Z,82.20
2019-05-26T07:11:07.900Z,83.30
2019-05-26T07:12:07.862Z,81.57
2019-05-26T07:13:07.829Z,79.19
2019-05-26T07:14:07.846Z,79.58
2019-05-26T07:15:07.792Z,82.42
2019-05-26T07:16:07.772Z,80.97
2019-05-26T07:17:07.732Z,74.76
2019-05-26T07:18:07.709Z,74.37
2019-05-26T07:19:07.684Z,76.20
2019-05-26T07:20:07.649Z,74.60
2019-05-26T07:21:07.650Z,73.86
2019-05-26T07:22:07.607Z,72.22
2019-05-26T07:23:08.497Z,72.67
2019-05-26T07:24:07.575Z,71.74
2019-05-26T07:25:07.529Z,67.14
2019-05-26T07:26:07.525Z,68.40
2019-05-26T07:27:07.517Z,67.62
2019-05-26T07:28:07.488Z,66.94
2019-05-26T07:29:07.433Z,68.88
2019-05-26T07:30:07.411Z,68.52
2019-05-26T07:31:07.399Z,67.69
2019-05-26T07:32:07.383Z,68.10
2019-05-26T07:33:07.351Z,70.48
2019-05-26T07:34:07.312Z,70.29
2019-05-26T07:35:07.284Z,68.71
2019-05-26T07:36:07.302Z,68.77
2019-05-26T07:37:07.254Z,69.26
2019-05-26T07:38:07.247Z,69.13
2019-05-26T07:39:07.244Z,69.65
2019-05-26T07:40:07.193Z,67.88
2019-05-26T07:41:07.176Z,63.95
2019-05-26T07:42:10.691Z,63.43
2019-05-26T07:43:07.124Z,64.17
2019-05-26T07:44:07.081Z,61.82
2019-05-26T07:45:07.071Z,62.75
2019-05-26T07:46:07.076Z,59.75
2019-05-26T07:47:07.020Z,58.91
2019-05-26T07:48:07.040Z,60.07
2019-05-26T07:49:06.998Z,59.52
2019-05-26T07:50:07.065Z,59.52
2019-05-26T07:51:06.931Z,57.09
2019-05-26T07:52:06.930Z,61.62
2019-05-26T07:53:06.908Z,59.78
2019-05-26T07:54:06.876Z,58.16
2019-05-26T07:55:06.846Z,59.59
2019-05-26T07:56:06.857Z,61.63
2019-05-26T07:57:06.799Z,60.95
2019-05-26T07:58:06.834Z,62.82
2019-05-26T07:59:06.760Z,62.01
2019-05-26T08:00:06.745Z,61.95
2019-05-26T08:01:06.764Z,63.37
2019-05-26T08:02:06.701Z,64.40
2019-05-26T08:03:06.674Z,64.59
2019-05-26T08:04:06.649Z,63.47
2019-05-26T08:05:06.646Z,64.85
2019-05-26T08:06:06.660Z,64.89
2019-05-26T08:07:06.600Z,62.63
2019-05-26T08:08:12.623Z,62.50
2019-05-26T08:09:06.526Z,64.24
2019-05-26T08:10:06.528Z,63.31
2019-05-26T08:11:06.513Z,67.43
2019-05-26T08:12:06.479Z,64.63
2019-05-26T08:13:06.434Z,64.72
2019-05-26T08:14:06.417Z,62.76
2019-05-26T08:15:06.399Z,62.63
2019-05-26T08:16:06.363Z,64.43
2019-05-26T08:17:06.359Z,62.85
2019-05-26T08:18:06.382Z,59.98
2019-05-26T08:19:06.306Z,60.82
2019-05-26T08:20:06.285Z,61.43
2019-05-26T08:21:06.287Z,63.27
2019-05-26T08:22:06.265Z,62.69
2019-05-26T08:23:06.229Z,62.98
2019-05-26T08:24:06.219Z,64.72
2019-05-26T08:25:06.195Z,59.79
2019-05-26T08:26:06.149Z,60.24
2019-05-26T08:27:06.215Z,64.37
2019-05-26T08:28:06.123Z,63.69
2019-05-26T08:29:06.179Z,64.11
2019-05-26T08:30:06.095Z,63.66
2019-05-26T08:31:06.048Z,64.24
2019-05-26T08:32:06.048Z,62.59
2019-05-26T08:33:05.996Z,59.79
2019-05-26T08:34:06.021Z,62.27
2019-05-26T08:35:05.950Z,61.36
2019-05-26T08:36:05.957Z,57.87
2019-05-26T08:37:05.909Z,54.77
2019-05-26T08:38:05.930Z,55.83
2019-05-26T08:39:06.066Z,55.83
2019-05-26T08:40:05.851Z,56.00
2019-05-26T08:41:05.842Z,59.33
2019-05-26T08:42:05.808Z,61.56
2019-05-26T08:43:05.791Z,60.72
2019-05-26T08:44:05.835Z,59.28
2019-05-26T08:45:05.787Z,57.82
2019-05-26T08:46:05.737Z,57.92
2019-05-26T08:47:05.714Z,59.28
2019-05-26T08:48:05.692Z,61.25
2019-05-26T08:49:05.653Z,62.56
2019-05-26T08:50:05.659Z,57.89
2019-05-26T08:51:05.603Z,60.27
2019-05-26T08:52:05.578Z,57.95
2019-05-26T08:53:05.556Z,58.24
2019-05-26T08:54:05.534Z,59.53
2019-05-26T08:55:05.520Z,60.11
2019-05-26T08:56:05.499Z,58.88
2019-05-26T08:57:05.486Z,58.95
2019-05-26T08:58:05.498Z,57.95
2019-05-26T08:59:05.430Z,59.43
2019-05-26T09:00:05.426Z,57.91
2019-05-26T09:01:05.386Z,57.88
2019-05-26T09:02:05.368Z,57.63
2019-05-26T09:03:05.348Z,58.89
2019-05-26T09:04:05.365Z,60.66
2019-05-26T09:05:05.299Z,61.88
2019-05-26T09:06:05.276Z,58.49
2019-05-26T09:07:05.251Z,57.37
2019-05-26T09:08:08.058Z,56.21
2019-05-26T09:09:05.192Z,56.98
2019-05-26T09:10:05.203Z,56.28
2019-05-26T09:11:05.224Z,57.29
2019-05-26T09:12:05.143Z,59.15
2019-05-26T09:13:05.125Z,59.80
2019-05-26T09:14:05.079Z,64.27
2019-05-26T09:15:05.062Z,65.88
2019-05-26T09:16:05.073Z,61.27
2019-05-26T09:17:05.036Z,56.07
2019-05-26T09:18:04.992Z,58.98
2019-05-26T09:19:04.967Z,57.45
2019-05-26T09:20:04.968Z,58.37
2019-05-26T09:21:04.921Z,58.73
2019-05-26T09:22:04.914Z,60.79
2019-05-26T09:23:04.901Z,65.11
2019-05-26T09:24:04.860Z,62.50
2019-05-26T09:25:04.835Z,63.66
2019-05-26T09:26:04.804Z,57.04
2019-05-26T09:27:04.822Z,58.61
2019-05-26T09:28:04.836Z,62.70
2019-05-26T09:29:04.766Z,61.37
2019-05-26T09:30:04.725Z,60.18
2019-05-26T09:31:04.697Z,62.12
2019-05-26T09:32:04.693Z,61.76
2019-05-26T09:33:04.652Z,61.82
2019-05-26T09:34:04.637Z,59.07
2019-05-26T09:35:04.636Z,59.00
2019-05-26T09:36:04.603Z,60.42
2019-05-26T09:37:04.604Z,55.69
2019-05-26T09:38:04.553Z,53.88
2019-05-26T09:39:04.531Z,55.17
2019-05-26T09:40:04.534Z,57.54
2019-05-26T09:41:04.493Z,56.20
2019-05-26T09:42:04.508Z,57.40
2019-05-26T09:43:15.784Z,60.82
2019-05-26T09:44:04.421Z,60.63
2019-05-26T09:45:04.383Z,58.98
2019-05-26T09:46:04.381Z,62.53
2019-05-26T09:47:04.365Z,64.82
2019-05-26T09:48:04.337Z,61.21
2019-05-26T09:49:04.304Z,60.30
2019-05-26T09:50:04.274Z,59.27
2019-05-26T09:51:04.254Z,57.97
2019-05-26T09:52:04.239Z,58.55
2019-05-26T09:53:04.239Z,56.13
2019-05-26T09:54:04.193Z,58.84
2019-05-26T09:55:04.146Z,54.63
2019-05-26T09:56:04.133Z,56.11
2019-05-26T09:57:04.115Z,56.96
2019-05-26T09:58:04.091Z,54.67
2019-05-26T09:59:04.155Z,55.88
2019-05-26T10:00:04.044Z,59.63
2019-05-26T10:01:04.022Z,56.34
2019-05-26T10:02:04.042Z,60.33
2019-05-26T10:03:03.974Z,58.82
2019-05-26T10:04:03.958Z,61.82
2019-05-26T10:05:03.939Z,56.39
2019-05-26T10:06:03.910Z,59.88
2019-05-26T10:07:03.878Z,57.17
2019-05-26T10:08:04.722Z,56.32
2019-05-26T10:09:03.828Z,57.39
2019-05-26T10:10:03.811Z,56.15
2019-05-26T10:11:03.786Z,54.24
2019-05-26T10:12:03.825Z,57.37
2019-05-26T10:13:03.736Z,54.49
2019-05-26T10:14:03.794Z,55.36
2019-05-26T10:15:03.716Z,54.78
2019-05-26T10:16:03.674Z,55.55
2019-05-26T10:17:03.643Z,52.62
2019-05-26T10:18:03.629Z,52.52
2019-05-26T10:19:03.616Z,54.60
2019-05-26T10:20:03.587Z,61.46
2019-05-26T10:21:03.562Z,63.65
2019-05-26T10:22:03.532Z,58.81
2019-05-26T10:23:03.517Z,59.23
2019-05-26T10:24:03.494Z,60.39
2019-05-26T10:25:03.479Z,57.58
2019-05-26T10:26:03.450Z,57.19
2019-05-26T10:27:03.447Z,54.55
2019-05-26T10:28:03.399Z,55.52
2019-05-26T10:29:03.411Z,55.85
2019-05-26T10:30:03.346Z,58.70
2019-05-26T10:31:03.357Z,59.31
2019-05-26T10:32:03.397Z,62.40
2019-05-26T10:33:03.289Z,63.63
2019-05-26T10:34:03.316Z,62.34
2019-05-26T10:35:03.266Z,62.15
2019-05-26T10:36:03.246Z,61.73
2019-05-26T10:37:03.199Z,61.02
2019-05-26T10:38:03.198Z,60.47
2019-05-26T10:39:03.154Z,58.72
2019-05-26T10:40:03.126Z,58.02
2019-05-26T10:41:03.117Z,58.92
2019-05-26T10:42:03.086Z,62.01
2019-05-26T10:43:03.055Z,60.95
2019-05-26T10:44:03.050Z,58.15
2019-05-26T10:45:03.023Z,59.89
2019-05-26T10:46:03.002Z,60.60
2019-05-26T10:47:02.987Z,61.21
2019-05-26T10:48:02.984Z,59.38
2019-05-26T10:49:03.035Z,60.92
2019-05-26T10:50:02.876Z,63.27
2019-05-26T10:51:02.908Z,58.60
2019-05-26T10:52:02.859Z,58.18
2019-05-26T10:53:03.129Z,60.21
2019-05-26T10:54:02.797Z,59.47
2019-05-26T10:55:02.819Z,57.89
2019-05-26T10:56:02.753Z,58.45
2019-05-26T10:57:02.906Z,61.44
2019-05-26T10:58:02.870Z,60.06
2019-05-26T10:59:02.663Z,59.76
2019-05-26T11:00:02.674Z,57.56
2019-05-26T11:01:02.710Z,55.92
2019-05-26T11:02:02.592Z,57.30
2019-05-26T11:03:02.561Z,58.49
2019-05-26T11:04:02.617Z,55.32
2019-05-26T11:05:02.539Z,55.62
2019-05-26T11:06:02.511Z,54.55
2019-05-26T11:07:02.479Z,55.54
2019-05-26T11:08:02.449Z,57.42
2019-05-26T11:09:02.430Z,58.03
2019-05-26T11:10:02.418Z,55.08
2019-05-26T11:11:02.493Z,57.03
2019-05-26T11:12:02.424Z,54.58
2019-05-26T11:13:02.336Z,55.22
2019-05-26T11:14:03.522Z,55.24
2019-05-26T11:15:02.277Z,54.59
2019-05-26T11:16:02.267Z,54.30
2019-05-26T11:17:02.228Z,54.35
2019-05-26T11:18:02.273Z,56.93
2019-05-26T11:19:02.171Z,56.22
2019-05-26T11:20:02.182Z,58.28
2019-05-26T11:21:02.132Z,55.55
2019-05-26T11:22:02.174Z,58.93
2019-05-26T11:23:02.085Z,56.93
2019-05-26T11:24:02.068Z,56.02
2019-05-26T11:25:02.031Z,54.37
2019-05-26T11:26:02.022Z,53.75
2019-05-26T11:27:09.922Z,55.26
2019-05-26T11:28:01.985Z,56.18
2019-05-26T11:29:01.944Z,52.03
2019-05-26T11:30:01.905Z,52.40
2019-05-26T11:31:01.899Z,52.64
2019-05-26T11:32:01.909Z,53.81
2019-05-26T11:33:01.862Z,55.92
2019-05-26T11:34:01.806Z,55.41
2019-05-26T11:35:02.359Z,57.24
2019-05-26T11:36:01.784Z,57.46
2019-05-26T11:37:01.779Z,57.23
2019-05-26T11:38:01.807Z,54.81
2019-05-26T11:39:01.705Z,54.38
2019-05-26T11:40:01.696Z,53.51
2019-05-26T11:41:01.651Z,55.93
2019-05-26T11:42:12.800Z,55.77
2019-05-26T11:43:15.784Z,53.83
2019-05-26T11:44:01.574Z,52.95
2019-05-26T11:45:01.607Z,51.31
2019-05-26T11:46:01.586Z,51.59
2019-05-26T11:47:01.520Z,52.66
2019-05-26T11:48:01.501Z,54.90
2019-05-26T11:49:01.493Z,55.57
2019-05-26T11:50:01.537Z,54.94
2019-05-26T11:51:01.415Z,55.40
2019-05-26T11:52:01.396Z,57.20
2019-05-26T11:53:01.380Z,57.88
2019-05-26T11:54:01.340Z,58.80
2019-05-26T11:55:01.337Z,57.54
2019-05-26T11:56:01.311Z,57.03
2019-05-26T11:57:01.256Z,57.89
2019-05-26T11:58:01.251Z,58.73
2019-05-26T11:59:01.230Z,59.63
2019-05-26T12:00:01.371Z,59.59
2019-05-26T12:01:01.175Z,58.56
2019-05-26T12:02:01.147Z,56.15
2019-05-26T12:03:01.132Z,58.25
2019-05-26T12:04:01.141Z,58.73
2019-05-26T12:05:01.077Z,60.64
2019-05-26T12:06:01.051Z,60.28
2019-05-26T12:07:04.238Z,59.34
2019-05-26T12:08:01.009Z,58.53
2019-05-26T12:09:01.009Z,56.86
2019-05-26T12:10:00.952Z,56.25
2019-05-26T12:11:00.934Z,57.82
2019-05-26T12:12:00.944Z,57.37
2019-05-26T12:13:00.896Z,54.62
2019-05-26T12:14:00.870Z,55.81
2019-05-26T12:15:00.863Z,54.94
2019-05-26T12:16:00.850Z,53.53
2019-05-26T12:17:00.794Z,54.43
2019-05-26T12:18:00.757Z,54.91
2019-05-26T12:19:00.781Z,55.56
2019-05-26T12:20:04.704Z,55.92
2019-05-26T12:21:00.701Z,57.76
2019-05-26T12:22:00.687Z,56.37
2019-05-26T12:23:00.632Z,57.20
2019-05-26T12:24:00.602Z,55.68
2019-05-26T12:25:00.578Z,55.68
2019-05-26T12:26:00.546Z,54.52
2019-05-26T12:27:00.531Z,53.85
2019-05-26T12:28:00.506Z,54.71
2019-05-26T12:29:00.484Z,54.33
2019-05-26T12:30:00.460Z,54.64
2019-05-26T12:31:00.441Z,56.03
2019-05-26T12:32:00.479Z,54.67
2019-05-26T12:33:00.428Z,54.55
2019-05-26T12:34:00.404Z,55.30
2019-05-26T12:35:00.394Z,57.00
2019-05-26T12:36:00.324Z,56.47
2019-05-26T12:37:00.308Z,53.85
2019-05-26T12:38:00.286Z,51.18
2019-05-26T12:39:00.316Z,52.61
2019-05-26T12:40:00.245Z,54.38
2019-05-26T12:41:00.207Z,54.50
2019-05-26T12:42:00.204Z,53.63
2019-05-26T12:43:00.194Z,52.86
2019-05-26T12:44:00.156Z,54.90
2019-05-26T12:45:00.116Z,54.35
2019-05-26T12:46:00.115Z,56.26
2019-05-26T12:47:00.061Z,56.30
2019-05-26T12:48:00.039Z,55.66
2019-05-26T12:49:00.022Z,57.98
2019-05-26T12:49:59.996Z,55.56
2019-05-26T12:50:59.956Z,54.59
2019-05-26T12:51:59.940Z,56.07